31.0°F
Current conditions from King Hill
Updated every 5 minutes
 
  Thursday December 18, 2014

Station Historical Data
Daily Summary for May 12, 2012 Units:  English    Metric   Both
« Previous Day
Next Day »
Daily Weekly Monthly Yearly Custom
  High: Low: Average:
Temperature: 74.4 °F 39.3 °F 59.4 °F
Dew Point: 50.8 °F 27.5 °F 37.6 °F
Humidity: 68% 28% 46%
Wind Speed: 10.0mph 0.0mph 2.3mph
Wind Gust: 17.0mph - -
Wind- - WSW
Pressure: 30.08 in 29.99 in -
Precipitation: 0.00 in    
Historical Graphs
 
 
Tabular Data for May 12, 2012
Time Temperature Dew Point Pressure Wind Wind Speed Wind Gust Humidity Daily Rainfall
00:05 45.8 °F 28.7 °F 29.99 in Calm   1.0 mph 51% 0.00 in
00:10 46.1 °F 28.5 °F 29.99 in Calm   1.0 mph 50% 0.00 in
00:15 46.1 °F 29.0 °F 29.99 in Calm   2.0 mph 51% 0.00 in
00:20 46.1 °F 28.5 °F 29.99 in Calm   2.0 mph 50% 0.00 in
00:25 46.3 °F 28.2 °F 29.99 in Calm   1.0 mph 49% 0.00 in
00:30 46.4 °F 28.8 °F 29.99 in Calm     50% 0.00 in
00:40 45.9 °F 28.8 °F 29.99 in Calm     51% 0.00 in
00:50 46.0 °F 27.9 °F 29.99 in Calm   2.0 mph 49% 0.00 in
00:55 46.4 °F 28.3 °F 29.99 in Calm   1.0 mph 49% 0.00 in
01:00 46.5 °F 29.3 °F 29.99 in Calm   1.0 mph 51% 0.00 in
01:05 46.3 °F 28.7 °F 29.99 in Calm   3.0 mph 50% 0.00 in
01:10 45.9 °F 28.3 °F 29.99 in Calm   3.0 mph 50% 0.00 in
01:15 45.8 °F 28.7 °F 29.99 in Calm   1.0 mph 51% 0.00 in
01:20 45.1 °F 28.5 °F 29.99 in Calm   3.0 mph 52% 0.00 in
01:25 44.7 °F 28.6 °F 29.99 in Calm   3.0 mph 53% 0.00 in
01:30 44.5 °F 27.5 °F 29.99 in Calm   2.0 mph 51% 0.00 in
01:35 45.0 °F 28.4 °F 30.00 in Calm   2.0 mph 52% 0.00 in
01:45 44.6 °F 29.4 °F 29.99 in Calm   1.0 mph 55% 0.00 in
01:55 43.3 °F 28.7 °F 30.00 in Calm   1.0 mph 56% 0.00 in
02:00 43.2 °F 29.4 °F 30.00 in Calm   1.0 mph 58% 0.00 in
02:05 43.2 °F 29.4 °F 30.00 in Calm   5.0 mph 58% 0.00 in
02:10 43.2 °F 29.4 °F 30.00 in Calm   5.0 mph 58% 0.00 in
02:15 43.0 °F 29.7 °F 30.00 in Calm   1.0 mph 59% 0.00 in
02:20 42.9 °F 29.6 °F 30.00 in Calm   1.0 mph 59% 0.00 in
02:25 42.9 °F 29.6 °F 30.00 in Calm   1.0 mph 59% 0.00 in
02:35 42.4 °F 29.5 °F 30.00 in Calm   4.0 mph 60% 0.00 in
02:40 42.3 °F 29.4 °F 30.00 in Calm   3.0 mph 60% 0.00 in
02:50 42.7 °F 29.0 °F 30.01 in Calm   5.0 mph 58% 0.00 in
02:55 42.8 °F 29.5 °F 30.01 in Calm   5.0 mph 59% 0.00 in
03:05 42.4 °F 29.1 °F 30.00 in Calm   4.0 mph 59% 0.00 in
03:10 42.4 °F 29.5 °F 30.01 in Calm   4.0 mph 60% 0.00 in
03:15 42.1 °F 29.6 °F 30.00 in SW 2.0 mph 5.0 mph 61% 0.00 in
03:20 42.0 °F 29.1 °F 30.00 in Calm   5.0 mph 60% 0.00 in
03:25 42.5 °F 28.8 °F 30.01 in Calm   1.0 mph 58% 0.00 in
03:30 42.8 °F 29.5 °F 30.01 in Calm   3.0 mph 59% 0.00 in
03:40 42.6 °F 29.3 °F 30.01 in Calm     59% 0.00 in
03:45 42.5 °F 29.6 °F 30.01 in Calm   1.0 mph 60% 0.00 in
03:55 42.8 °F 28.6 °F 30.01 in Calm     57% 0.00 in
04:00 42.7 °F 29.4 °F 30.01 in Calm     59% 0.00 in
04:05 42.4 °F 29.1 °F 30.01 in Calm     59% 0.00 in
04:10 42.3 °F 29.4 °F 30.01 in Calm     60% 0.00 in
04:15 42.2 °F 29.3 °F 30.01 in Calm     60% 0.00 in
04:25 43.1 °F 29.7 °F 30.01 in Calm   1.0 mph 59% 0.00 in
04:30 42.8 °F 29.0 °F 30.02 in Calm     58% 0.00 in
04:35 42.5 °F 29.2 °F 30.02 in Calm     59% 0.00 in
04:40 43.6 °F 28.5 °F 30.01 in Calm     55% 0.00 in
04:45 43.5 °F 29.7 °F 30.02 in Calm     58% 0.00 in
04:50 41.6 °F 29.9 °F 30.02 in Calm     63% 0.00 in
04:55 40.6 °F 29.8 °F 30.02 in Calm     65% 0.00 in
05:00 39.8 °F 29.7 °F 30.02 in Calm     67% 0.00 in
05:05 39.4 °F 29.7 °F 30.02 in SW 1.0 mph 5.0 mph 68% 0.00 in
05:10 39.3 °F 29.3 °F 30.02 in SW 1.0 mph 5.0 mph 67% 0.00 in
05:15 40.0 °F 29.2 °F 30.02 in Calm   4.0 mph 65% 0.00 in
05:20 40.7 °F 29.9 °F 30.02 in Calm   4.0 mph 65% 0.00 in
05:25 41.7 °F 29.2 °F 30.02 in SW 1.0 mph 4.0 mph 61% 0.00 in
05:30 42.0 °F 29.9 °F 30.03 in Calm   4.0 mph 62% 0.00 in
05:35 41.4 °F 29.8 °F 30.03 in Calm   2.0 mph 63% 0.00 in
05:40 41.1 °F 29.5 °F 30.03 in Calm   2.0 mph 63% 0.00 in
05:45 41.3 °F 29.7 °F 30.03 in Calm   2.0 mph 63% 0.00 in
05:50 41.6 °F 29.6 °F 30.03 in Calm   3.0 mph 62% 0.00 in
05:55 41.5 °F 29.5 °F 30.04 in Calm   3.0 mph 62% 0.00 in
06:00 41.8 °F 29.3 °F 30.04 in SW 1.0 mph 4.0 mph 61% 0.00 in
06:05 42.2 °F 28.9 °F 30.04 in Calm   4.0 mph 59% 0.00 in
06:10 42.2 °F 29.7 °F 30.04 in Calm   2.0 mph 61% 0.00 in
06:15 42.0 °F 29.5 °F 30.05 in Calm   2.0 mph 61% 0.00 in
06:20 42.3 °F 29.8 °F 30.05 in Calm   4.0 mph 61% 0.00 in
06:30 42.9 °F 30.0 °F 30.06 in Calm   2.0 mph 60% 0.00 in
06:35 43.1 °F 29.7 °F 30.05 in Calm   1.0 mph 59% 0.00 in
06:45 44.0 °F 31.0 °F 30.06 in Calm   5.0 mph 60% 0.00 in
06:50 43.9 °F 30.9 °F 30.06 in Calm   4.0 mph 60% 0.00 in
06:55 43.9 °F 31.3 °F 30.06 in SW 2.0 mph 5.0 mph 61% 0.00 in
07:00 44.7 °F 32.1 °F 30.06 in SSW 3.0 mph 7.0 mph 61% 0.00 in
07:05 45.3 °F 31.8 °F 30.06 in SSW 2.0 mph 7.0 mph 59% 0.00 in
07:10 46.0 °F 32.1 °F 30.06 in SSW 4.0 mph 7.0 mph 58% 0.00 in
07:15 46.7 °F 32.7 °F 30.06 in SSW 1.0 mph 7.0 mph 58% 0.00 in
07:20 47.2 °F 33.2 °F 30.07 in SW 2.0 mph 9.0 mph 58% 0.00 in
07:25 47.6 °F 33.6 °F 30.07 in SW 2.0 mph 9.0 mph 58% 0.00 in
07:30 47.9 °F 33.4 °F 30.07 in Calm   7.0 mph 57% 0.00 in
07:35 48.6 °F 34.1 °F 30.07 in SSW 3.0 mph 7.0 mph 57% 0.00 in
07:40 49.1 °F 33.6 °F 30.07 in SSW 2.0 mph 8.0 mph 55% 0.00 in
07:50 50.2 °F 34.7 °F 30.07 in SSW 2.0 mph 7.0 mph 55% 0.00 in
07:55 50.8 °F 34.8 °F 30.07 in SSW 2.0 mph 8.0 mph 54% 0.00 in
08:00 51.5 °F 34.9 °F 30.07 in SSW 3.0 mph 8.0 mph 53% 0.00 in
08:05 52.0 °F 34.4 °F 30.07 in SSW 2.0 mph 7.0 mph 51% 0.00 in
08:10 52.4 °F 35.8 °F 30.07 in SSW 1.0 mph 8.0 mph 53% 0.00 in
08:15 53.0 °F 36.3 °F 30.07 in SSW 1.0 mph 8.0 mph 53% 0.00 in
08:20 53.4 °F 35.7 °F 30.07 in SSW 2.0 mph 8.0 mph 51% 0.00 in
08:25 53.9 °F 36.2 °F 30.07 in Calm   8.0 mph 51% 0.00 in
08:30 54.7 °F 36.4 °F 30.08 in SSW 1.0 mph 7.0 mph 50% 0.00 in
08:35 55.2 °F 36.4 °F 30.08 in SSW 1.0 mph 7.0 mph 49% 0.00 in
08:40 55.5 °F 35.1 °F 30.08 in SW 5.0 mph 8.0 mph 46% 0.00 in
08:45 55.9 °F 36.5 °F 30.08 in Calm   8.0 mph 48% 0.00 in
08:50 56.4 °F 37.0 °F 30.08 in Calm   6.0 mph 48% 0.00 in
08:55 56.9 °F 35.8 °F 30.08 in SW 2.0 mph 6.0 mph 45% 0.00 in
09:00 57.1 °F 34.8 °F 30.07 in SW 2.0 mph 7.0 mph 43% 0.00 in
09:05 57.5 °F 36.9 °F 30.08 in Calm   7.0 mph 46% 0.00 in
09:10 57.8 °F 37.2 °F 30.08 in Calm   5.0 mph 46% 0.00 in
09:15 58.6 °F 38.4 °F 30.07 in Calm   5.0 mph 47% 0.00 in
09:20 59.0 °F 37.1 °F 30.07 in Calm   3.0 mph 44% 0.00 in
09:30 59.5 °F 34.5 °F 30.07 in West 1.0 mph 7.0 mph 39% 0.00 in
09:40 60.8 °F 35.7 °F 30.07 in Calm   7.0 mph 39% 0.00 in
09:45 61.0 °F 33.2 °F 30.07 in SW 2.0 mph 8.0 mph 35% 0.00 in
09:50 60.8 °F 34.4 °F 30.07 in WSW 1.0 mph 8.0 mph 37% 0.00 in
09:55 61.1 °F 35.3 °F 30.07 in WSW 2.0 mph 9.0 mph 38% 0.00 in
10:00 61.1 °F 35.3 °F 30.07 in WSW 1.0 mph 9.0 mph 38% 0.00 in
10:05 61.8 °F 35.9 °F 30.07 in WSW 2.0 mph 8.0 mph 38% 0.00 in
10:10 62.4 °F 37.8 °F 30.07 in SW 1.0 mph 8.0 mph 40% 0.00 in
10:15 62.9 °F 34.1 °F 30.06 in West 1.0 mph 6.0 mph 34% 0.00 in
10:20 63.3 °F 34.5 °F 30.06 in WSW 2.0 mph 8.0 mph 34% 0.00 in
10:25 63.4 °F 36.0 °F 30.06 in West 2.0 mph 8.0 mph 36% 0.00 in
10:35 64.0 °F 35.1 °F 30.07 in West 1.0 mph 10.0 mph 34% 0.00 in
10:40 64.3 °F 36.1 °F 30.07 in WSW 3.0 mph 7.0 mph 35% 0.00 in
10:45 64.6 °F 32.5 °F 30.07 in WSW 3.0 mph 9.0 mph 30% 0.00 in
10:50 64.6 °F 34.1 °F 30.07 in WSW 2.0 mph 9.0 mph 32% 0.00 in
11:00 65.5 °F 35.7 °F 30.07 in Calm   6.0 mph 33% 0.00 in
11:05 65.9 °F 31.9 °F 30.07 in Calm   10.0 mph 28% 0.00 in
11:10 66.3 °F 33.1 °F 30.07 in West 2.0 mph 10.0 mph 29% 0.00 in
11:15 66.5 °F 32.4 °F 30.07 in WSW 1.0 mph 8.0 mph 28% 0.00 in
11:20 66.4 °F 35.7 °F 30.06 in West 1.0 mph 8.0 mph 32% 0.00 in
11:25 66.6 °F 35.0 °F 30.06 in WNW 1.0 mph 10.0 mph 31% 0.00 in
11:30 67.0 °F 35.4 °F 30.06 in SW 2.0 mph 10.0 mph 31% 0.00 in
11:35 67.3 °F 38.7 °F 30.06 in Calm   7.0 mph 35% 0.00 in
11:40 67.7 °F 37.6 °F 30.06 in Calm   7.0 mph 33% 0.00 in
11:45 68.2 °F 37.2 °F 30.06 in WSW 5.0 mph 10.0 mph 32% 0.00 in
11:50 68.2 °F 36.4 °F 30.06 in WSW 4.0 mph 10.0 mph 31% 0.00 in
12:00 68.0 °F 33.7 °F 30.05 in WNW 5.0 mph 11.0 mph 28% 0.00 in
12:05 68.1 °F 37.1 °F 30.05 in West 3.0 mph 10.0 mph 32% 0.00 in
12:10 68.5 °F 38.3 °F 30.05 in Calm   6.0 mph 33% 0.00 in
12:15 69.1 °F 38.8 °F 30.04 in WSW 1.0 mph 7.0 mph 33% 0.00 in
12:20 68.8 °F 37.0 °F 30.04 in WSW 2.0 mph 8.0 mph 31% 0.00 in
12:25 69.0 °F 37.9 °F 30.04 in NNW 1.0 mph 10.0 mph 32% 0.00 in
12:30 69.7 °F 36.0 °F 30.04 in NW 3.0 mph 10.0 mph 29% 0.00 in
12:35 70.0 °F 38.8 °F 30.04 in West 4.0 mph 8.0 mph 32% 0.00 in
12:45 70.7 °F 37.8 °F 30.03 in WNW 4.0 mph 11.0 mph 30% 0.00 in
12:55 70.7 °F 39.4 °F 30.03 in WNW 4.0 mph 10.0 mph 32% 0.00 in
13:00 71.3 °F 38.3 °F 30.03 in NW 5.0 mph 10.0 mph 30% 0.00 in
13:05 71.1 °F 39.0 °F 30.03 in WNW 4.0 mph 10.0 mph 31% 0.00 in
13:10 71.4 °F 39.2 °F 30.03 in NW 1.0 mph 10.0 mph 31% 0.00 in
13:15 72.0 °F 40.6 °F 30.02 in Calm   8.0 mph 32% 0.00 in
13:20 72.2 °F 40.7 °F 30.02 in West 2.0 mph 8.0 mph 32% 0.00 in
13:25 72.1 °F 38.1 °F 30.03 in WNW 6.0 mph 13.0 mph 29% 0.00 in
13:30 72.4 °F 40.9 °F 30.02 in NW 2.0 mph 13.0 mph 32% 0.00 in
13:35 72.8 °F 39.6 °F 30.03 in NW 5.0 mph 11.0 mph 30% 0.00 in
13:40 73.0 °F 38.9 °F 30.03 in WNW 2.0 mph 10.0 mph 29% 0.00 in
13:50 72.8 °F 39.6 °F 30.02 in West 1.0 mph 8.0 mph 30% 0.00 in
14:00 72.9 °F 40.5 °F 30.02 in WNW 3.0 mph 8.0 mph 31% 0.00 in
14:05 73.2 °F 41.6 °F 30.02 in Calm   6.0 mph 32% 0.00 in
14:10 73.6 °F 42.8 °F 30.02 in WNW 7.0 mph 12.0 mph 33% 0.00 in
14:15 73.8 °F 43.7 °F 30.02 in West 4.0 mph 17.0 mph 34% 0.00 in
14:20 73.5 °F 40.2 °F 30.02 in WNW 10.0 mph 17.0 mph 30% 0.00 in
14:25 72.9 °F 41.3 °F 30.02 in WNW 3.0 mph 17.0 mph 32% 0.00 in
14:30 73.8 °F 43.7 °F 30.02 in Calm   11.0 mph 34% 0.00 in
14:40 74.3 °F 41.7 °F 30.01 in NW 1.0 mph 10.0 mph 31% 0.00 in
14:45 74.1 °F 43.2 °F 30.01 in NNW 2.0 mph 10.0 mph 33% 0.00 in
14:55 73.6 °F 42.8 °F 30.01 in WNW 7.0 mph 11.0 mph 33% 0.00 in
15:00 74.1 °F 44.7 °F 30.01 in WNW 2.0 mph 11.0 mph 35% 0.00 in
15:05 74.4 °F 42.6 °F 30.01 in WNW 7.0 mph 13.0 mph 32% 0.00 in
15:15 73.0 °F 42.2 °F 30.01 in Calm   8.0 mph 33% 0.00 in
15:20 72.9 °F 42.1 °F 30.01 in NW 3.0 mph 8.0 mph 33% 0.00 in
15:25 72.8 °F 44.3 °F 30.01 in WNW 4.0 mph 8.0 mph 36% 0.00 in
15:30 73.1 °F 44.6 °F 30.01 in WNW 1.0 mph 8.0 mph 36% 0.00 in
15:35 72.8 °F 45.0 °F 30.01 in WNW 5.0 mph 9.0 mph 37% 0.00 in
15:45 72.0 °F 44.3 °F 30.01 in NW 1.0 mph 13.0 mph 37% 0.00 in
15:50 72.1 °F 45.1 °F 30.01 in NW 1.0 mph 10.0 mph 38% 0.00 in
15:55 72.0 °F 43.6 °F 30.01 in NW 3.0 mph 8.0 mph 36% 0.00 in
16:00 71.8 °F 44.2 °F 30.01 in Calm   8.0 mph 37% 0.00 in
16:10 71.1 °F 44.2 °F 30.01 in NNW 2.0 mph 10.0 mph 38% 0.00 in
16:15 71.1 °F 44.2 °F 30.01 in Calm   10.0 mph 38% 0.00 in
16:20 71.0 °F 44.8 °F 30.01 in Calm   7.0 mph 39% 0.00 in
16:25 70.7 °F 44.6 °F 30.02 in NNW 1.0 mph 6.0 mph 39% 0.00 in
16:30 70.4 °F 45.0 °F 30.01 in Calm   4.0 mph 40% 0.00 in
16:35 70.1 °F 44.0 °F 30.01 in NNE 1.0 mph 7.0 mph 39% 0.00 in
16:45 70.0 °F 46.5 °F 30.01 in Calm   5.0 mph 43% 0.00 in
16:55 71.1 °F 46.2 °F 30.02 in Calm     41% 0.00 in
17:00 71.3 °F 45.8 °F 30.02 in NNE 1.0 mph 7.0 mph 40% 0.00 in
17:05 71.5 °F 45.3 °F 30.01 in Calm   7.0 mph 39% 0.00 in
17:10 71.5 °F 45.3 °F 30.01 in Calm   2.0 mph 39% 0.00 in
17:15 71.3 °F 43.7 °F 30.01 in NNE 1.0 mph 4.0 mph 37% 0.00 in
17:20 71.3 °F 47.7 °F 30.01 in Calm   4.0 mph 43% 0.00 in
17:25 71.3 °F 45.1 °F 30.01 in Calm   4.0 mph 39% 0.00 in
17:30 70.9 °F 47.3 °F 30.01 in Calm   3.0 mph 43% 0.00 in
17:35 70.4 °F 46.9 °F 30.01 in Calm   1.0 mph 43% 0.00 in
17:40 70.0 °F 46.5 °F 30.01 in Calm   2.0 mph 43% 0.00 in
17:45 69.8 °F 48.1 °F 30.01 in Calm   2.0 mph 46% 0.00 in
17:50 69.8 °F 46.3 °F 30.01 in Calm   1.0 mph 43% 0.00 in
17:55 69.9 °F 48.8 °F 30.01 in Calm   1.0 mph 47% 0.00 in
18:00 70.2 °F 48.5 °F 30.01 in Calm     46% 0.00 in
18:05 70.1 °F 50.1 °F 30.01 in Calm     49% 0.00 in
18:10 69.7 °F 50.8 °F 30.01 in Calm   4.0 mph 51% 0.00 in
18:15 70.1 °F 46.6 °F 30.01 in Calm   4.0 mph 43% 0.00 in
18:20 71.2 °F 45.7 °F 30.01 in NNE 1.0 mph 4.0 mph 40% 0.00 in
18:25 72.5 °F 45.5 °F 30.01 in Calm   4.0 mph 38% 0.00 in
18:30 73.7 °F 46.5 °F 30.01 in Calm   1.0 mph 38% 0.00 in
18:35 74.3 °F 47.1 °F 30.01 in Calm   5.0 mph 38% 0.00 in
18:40 74.4 °F 44.2 °F 30.01 in Calm   6.0 mph 34% 0.00 in
18:45 74.0 °F 44.6 °F 30.01 in NW 1.0 mph 7.0 mph 35% 0.00 in
18:50 73.7 °F 46.5 °F 30.01 in NW 1.0 mph 8.0 mph 38% 0.00 in
19:00 72.8 °F 46.4 °F 30.02 in Calm   1.0 mph 39% 0.00 in
19:05 72.3 °F 46.0 °F 30.02 in Calm     39% 0.00 in
19:10 71.5 °F 48.5 °F 30.02 in Calm     44% 0.00 in
19:15 70.3 °F 48.6 °F 30.02 in Calm     46% 0.00 in
19:20 69.4 °F 47.7 °F 30.02 in Calm     46% 0.00 in
19:25 68.7 °F 46.5 °F 30.02 in Calm     45% 0.00 in
19:30 68.1 °F 47.1 °F 30.02 in Calm     47% 0.00 in
19:35 67.1 °F 47.9 °F 30.03 in Calm     50% 0.00 in
19:40 66.1 °F 49.0 °F 30.03 in Calm     54% 0.00 in
19:45 65.7 °F 47.1 °F 30.03 in NW 1.0 mph 3.0 mph 51% 0.00 in
19:50 65.3 °F 48.7 °F 30.03 in Calm   3.0 mph 55% 0.00 in
19:55 64.8 °F 48.8 °F 30.03 in NW 1.0 mph 2.0 mph 56% 0.00 in
20:00 64.4 °F 47.9 °F 30.03 in Calm   2.0 mph 55% 0.00 in
20:05 64.1 °F 47.6 °F 30.03 in Calm   2.0 mph 55% 0.00 in
20:10 63.9 °F 47.4 °F 30.04 in Calm     55% 0.00 in
20:20 63.7 °F 46.8 °F 30.04 in SW 1.0 mph 4.0 mph 54% 0.00 in
20:25 64.2 °F 47.2 °F 30.04 in WSW 2.0 mph 5.0 mph 54% 0.00 in
20:30 64.4 °F 45.9 °F 30.04 in WSW 1.0 mph 5.0 mph 51% 0.00 in
20:35 65.1 °F 44.4 °F 30.05 in West 3.0 mph 6.0 mph 47% 0.00 in
20:45 66.5 °F 44.5 °F 30.05 in WSW 1.0 mph 8.0 mph 45% 0.00 in
20:50 66.7 °F 44.1 °F 30.05 in WSW 2.0 mph 6.0 mph 44% 0.00 in
20:55 66.9 °F 44.3 °F 30.05 in SW 2.0 mph 10.0 mph 44% 0.00 in
21:00 67.2 °F 42.1 °F 30.05 in West 7.0 mph 10.0 mph 40% 0.00 in
21:05 67.6 °F 41.8 °F 30.05 in WSW 1.0 mph 10.0 mph 39% 0.00 in
21:10 67.6 °F 41.1 °F 30.05 in WSW 2.0 mph 9.0 mph 38% 0.00 in
21:15 67.4 °F 40.9 °F 30.05 in West 3.0 mph 8.0 mph 38% 0.00 in
21:20 67.4 °F 40.2 °F 30.05 in WSW 1.0 mph 8.0 mph 37% 0.00 in
21:25 67.2 °F 40.1 °F 30.05 in WSW 1.0 mph 6.0 mph 37% 0.00 in
21:30 66.9 °F 41.2 °F 30.05 in Calm   6.0 mph 39% 0.00 in
21:35 66.3 °F 41.3 °F 30.05 in Calm   6.0 mph 40% 0.00 in
21:45 64.5 °F 41.5 °F 30.05 in Calm   2.0 mph 43% 0.00 in
21:55 62.9 °F 41.8 °F 30.05 in Calm   3.0 mph 46% 0.00 in
22:00 62.3 °F 40.7 °F 30.05 in WSW 1.0 mph 5.0 mph 45% 0.00 in
22:05 62.2 °F 40.0 °F 30.05 in WSW 1.0 mph 6.0 mph 44% 0.00 in
22:10 62.9 °F 40.1 °F 30.05 in WSW 2.0 mph 9.0 mph 43% 0.00 in
22:15 63.6 °F 40.1 °F 30.05 in WSW 2.0 mph 9.0 mph 42% 0.00 in
22:20 64.1 °F 40.6 °F 30.05 in Calm   8.0 mph 42% 0.00 in
22:25 64.3 °F 40.1 °F 30.05 in WSW 2.0 mph 7.0 mph 41% 0.00 in
22:30 64.5 °F 40.9 °F 30.06 in WSW 3.0 mph 13.0 mph 42% 0.00 in
22:35 65.0 °F 40.7 °F 30.05 in Calm   13.0 mph 41% 0.00 in
22:40 65.0 °F 41.4 °F 30.05 in WSW 1.0 mph 12.0 mph 42% 0.00 in
22:45 64.8 °F 41.2 °F 30.05 in Calm   6.0 mph 42% 0.00 in
22:50 64.3 °F 41.3 °F 30.05 in SW 1.0 mph 4.0 mph 43% 0.00 in
22:55 64.2 °F 40.6 °F 30.05 in West 3.0 mph 8.0 mph 42% 0.00 in
23:00 64.5 °F 40.9 °F 30.05 in WSW 1.0 mph 8.0 mph 42% 0.00 in
23:05 64.9 °F 40.7 °F 30.05 in WSW 2.0 mph 7.0 mph 41% 0.00 in
23:10 65.2 °F 41.5 °F 30.05 in Calm   7.0 mph 42% 0.00 in
23:15 65.1 °F 40.8 °F 30.05 in Calm   6.0 mph 41% 0.00 in
23:20 64.9 °F 41.9 °F 30.05 in Calm   4.0 mph 43% 0.00 in
23:25 64.5 °F 42.1 °F 30.05 in Calm   4.0 mph 44% 0.00 in
23:30 64.0 °F 42.3 °F 30.05 in SW 2.0 mph 7.0 mph 45% 0.00 in
23:35 64.5 °F 40.9 °F 30.05 in WSW 2.0 mph 7.0 mph 42% 0.00 in
23:40 64.6 °F 41.6 °F 30.05 in Calm   7.0 mph 43% 0.00 in
23:45 64.5 °F 41.5 °F 30.05 in Calm   9.0 mph 43% 0.00 in
23:50 64.4 °F 41.4 °F 30.05 in West 1.0 mph 9.0 mph 43% 0.00 in
23:55 64.5 °F 40.9 °F 30.05 in WSW 2.0 mph 7.0 mph 42% 0.00 in
Westford Weather
Compliments of Weather Underground

 
 
Current Radar Loop:

Copyright © WestfordWeather.net 2007-2014. All rights reserved.